createdAt,value
2023-08-22T00:00:34.081Z,17.90
2023-08-22T00:03:02.084Z,17.80
2023-08-22T00:05:29.658Z,17.80
2023-08-22T00:07:57.100Z,17.80
2023-08-22T00:10:24.238Z,17.80
2023-08-22T00:12:51.501Z,17.70
2023-08-22T00:15:18.662Z,17.70
2023-08-22T00:17:46.333Z,17.70
2023-08-22T00:20:14.672Z,17.70
2023-08-22T00:22:42.332Z,17.60
2023-08-22T00:25:11.020Z,17.70
2023-08-22T00:27:39.552Z,17.70
2023-08-22T00:30:08.272Z,17.70
2023-08-22T00:32:35.857Z,17.70
2023-08-22T00:35:03.204Z,17.60
2023-08-22T00:37:30.490Z,17.50
2023-08-22T00:39:59.258Z,17.60
2023-08-22T00:42:26.777Z,17.50
2023-08-22T00:44:56.014Z,17.40
2023-08-22T00:47:24.122Z,17.40
2023-08-22T00:49:52.034Z,17.40
2023-08-22T00:52:19.395Z,17.40
2023-08-22T00:54:47.731Z,17.30
2023-08-22T00:57:15.436Z,17.30
2023-08-22T00:59:42.769Z,17.30
2023-08-22T01:02:12.944Z,17.30
2023-08-22T01:04:40.081Z,17.30
2023-08-22T01:07:27.246Z,17.30
2023-08-22T01:10:12.943Z,17.30
2023-08-22T01:13:00.364Z,17.20
2023-08-22T01:15:29.655Z,17.20
2023-08-22T01:17:59.689Z,17.10
2023-08-22T01:20:28.998Z,17.10
2023-08-22T01:22:56.925Z,17.10
2023-08-22T01:25:26.764Z,17.00
2023-08-22T01:28:31.480Z,17.00
2023-08-22T01:31:26.612Z,17.00
2023-08-22T01:34:09.065Z,17.00
2023-08-22T01:36:38.592Z,16.90
2023-08-22T01:39:08.780Z,16.90
2023-08-22T01:41:37.450Z,16.90
2023-08-22T01:44:04.855Z,16.90
2023-08-22T01:46:32.215Z,16.90
2023-08-22T01:49:00.187Z,16.90
2023-08-22T01:51:27.424Z,16.90
2023-08-22T01:53:54.539Z,16.80
2023-08-22T01:56:23.229Z,16.80
2023-08-22T01:58:50.505Z,16.80
2023-08-22T02:01:18.494Z,16.80
2023-08-22T02:03:47.470Z,16.80
2023-08-22T02:06:14.848Z,16.70
2023-08-22T02:08:42.145Z,16.70
2023-08-22T02:11:09.430Z,16.70
2023-08-22T02:13:36.609Z,16.70
2023-08-22T02:16:04.680Z,16.70
2023-08-22T02:18:31.900Z,16.70
2023-08-22T02:20:59.556Z,16.70
2023-08-22T02:23:28.063Z,16.60
2023-08-22T02:25:55.252Z,16.60
2023-08-22T02:28:22.454Z,16.60
2023-08-22T02:30:55.909Z,16.70
2023-08-22T02:33:23.779Z,16.70
2023-08-22T02:35:50.987Z,16.70
2023-08-22T02:38:18.124Z,16.70
2023-08-22T02:40:45.322Z,16.70
2023-08-22T02:43:12.466Z,16.80
2023-08-22T02:45:41.873Z,16.80
2023-08-22T02:48:09.104Z,16.80
2023-08-22T02:50:37.874Z,16.80
2023-08-22T02:53:05.720Z,16.80
2023-08-22T02:55:32.904Z,16.80
2023-08-22T02:58:00.028Z,16.90
2023-08-22T03:00:27.246Z,17.00
2023-08-22T03:02:54.796Z,17.00
2023-08-22T03:05:22.259Z,17.00
2023-08-22T03:07:49.570Z,16.90
2023-08-22T03:10:16.870Z,16.90
2023-08-22T03:12:44.728Z,16.90
2023-08-22T03:15:12.770Z,16.90
2023-08-22T03:17:42.402Z,16.80
2023-08-22T03:20:11.559Z,16.80
2023-08-22T03:22:38.737Z,16.80
2023-08-22T03:25:07.846Z,16.80
2023-08-22T03:27:36.593Z,16.70
2023-08-22T03:30:05.708Z,16.70
2023-08-22T03:32:36.165Z,16.70
2023-08-22T03:35:05.007Z,16.70
2023-08-22T03:37:33.734Z,16.70
2023-08-22T03:40:02.405Z,16.70
2023-08-22T03:42:29.857Z,16.70
2023-08-22T03:45:03.108Z,16.60
2023-08-22T03:47:31.605Z,16.60
2023-08-22T03:49:59.612Z,16.50
2023-08-22T03:52:29.721Z,16.50
2023-08-22T03:54:57.757Z,16.50
2023-08-22T03:57:25.301Z,16.50
2023-08-22T03:59:52.804Z,16.40
2023-08-22T04:02:20.605Z,16.40
2023-08-22T04:04:48.153Z,16.40
2023-08-22T04:07:15.578Z,16.40
2023-08-22T04:09:43.144Z,16.40
2023-08-22T04:12:10.479Z,16.30
2023-08-22T04:14:37.765Z,16.30
2023-08-22T04:17:05.101Z,16.30
2023-08-22T04:19:33.513Z,16.30
2023-08-22T04:22:00.921Z,16.30
2023-08-22T04:24:28.251Z,16.30
2023-08-22T04:26:55.958Z,16.30
2023-08-22T04:29:23.979Z,16.30
2023-08-22T04:31:51.619Z,16.40
2023-08-22T04:34:18.909Z,16.40
2023-08-22T04:36:54.499Z,16.40
2023-08-22T04:39:22.188Z,16.40
2023-08-22T04:41:53.503Z,16.30
2023-08-22T04:44:30.577Z,16.30
2023-08-22T04:46:58.356Z,16.30
2023-08-22T04:49:26.029Z,16.20
2023-08-22T04:51:53.914Z,16.20
2023-08-22T04:54:22.597Z,16.20
2023-08-22T04:56:50.028Z,16.10
2023-08-22T04:59:17.384Z,16.00
2023-08-22T05:01:46.380Z,16.00
2023-08-22T05:04:16.096Z,16.00
2023-08-22T05:06:43.666Z,16.00
2023-08-22T05:09:10.923Z,16.00
2023-08-22T05:11:40.901Z,16.00
2023-08-22T05:14:09.554Z,16.10
2023-08-22T05:16:37.179Z,16.10
2023-08-22T05:19:04.945Z,16.10
2023-08-22T05:21:32.555Z,16.20
2023-08-22T05:24:00.024Z,16.20
2023-08-22T05:26:27.319Z,16.20
2023-08-22T05:28:54.536Z,16.20
2023-08-22T05:31:25.516Z,16.20
2023-08-22T05:33:53.887Z,16.30
2023-08-22T05:36:21.105Z,16.30
2023-08-22T05:38:48.356Z,16.40
2023-08-22T05:41:16.142Z,16.40
2023-08-22T05:43:43.808Z,16.50
2023-08-22T05:46:11.054Z,16.50
2023-08-22T05:48:39.286Z,16.60
2023-08-22T05:51:07.170Z,16.70
2023-08-22T05:53:34.388Z,16.80
2023-08-22T05:56:01.680Z,16.90
2023-08-22T05:58:29.029Z,17.10
2023-08-22T06:00:56.262Z,17.20
2023-08-22T06:03:24.173Z,17.30
2023-08-22T06:05:51.507Z,17.40
2023-08-22T06:08:19.856Z,17.50
2023-08-22T06:10:47.552Z,17.60
2023-08-22T06:13:16.390Z,17.70
2023-08-22T06:15:44.586Z,17.80
2023-08-22T06:18:13.984Z,17.80
2023-08-22T06:20:42.217Z,17.80
2023-08-22T06:23:09.523Z,17.80
2023-08-22T06:25:38.552Z,17.90
2023-08-22T06:28:05.991Z,17.90
2023-08-22T06:30:34.439Z,17.90
2023-08-22T06:33:01.641Z,18.00
2023-08-22T06:35:29.474Z,18.00
2023-08-22T06:37:56.832Z,17.90
2023-08-22T06:40:26.089Z,18.00
2023-08-22T06:42:53.190Z,18.10
2023-08-22T06:45:30.108Z,18.20
2023-08-22T06:47:57.335Z,18.30
2023-08-22T06:50:24.507Z,18.50
2023-08-22T06:52:51.651Z,18.70
2023-08-22T06:55:18.781Z,18.70
2023-08-22T06:57:46.425Z,18.80
2023-08-22T07:00:15.373Z,18.90
2023-08-22T07:02:43.636Z,19.00
2023-08-22T07:05:12.266Z,19.00
2023-08-22T07:07:40.774Z,19.10
2023-08-22T07:10:10.550Z,19.30
2023-08-22T07:12:38.674Z,19.40
2023-08-22T07:15:07.065Z,19.50
2023-08-22T07:17:34.406Z,19.70
2023-08-22T07:20:01.813Z,19.90
2023-08-22T07:22:28.982Z,20.10
2023-08-22T07:24:56.222Z,20.20
2023-08-22T07:27:27.136Z,20.50
2023-08-22T07:29:54.376Z,20.70
2023-08-22T07:32:22.114Z,20.90
2023-08-22T07:34:49.704Z,20.90
2023-08-22T07:37:17.288Z,21.10
2023-08-22T07:39:44.674Z,21.20
2023-08-22T07:42:11.749Z,21.30
2023-08-22T07:44:38.962Z,21.30
2023-08-22T07:47:06.273Z,21.20
2023-08-22T07:49:33.444Z,21.30
2023-08-22T07:52:00.614Z,21.40
2023-08-22T07:54:27.897Z,21.60
2023-08-22T07:57:04.728Z,21.60
2023-08-22T07:59:32.927Z,21.80
2023-08-22T08:02:00.089Z,21.80
2023-08-22T08:04:27.630Z,21.90
2023-08-22T08:06:55.758Z,21.80
2023-08-22T08:09:34.470Z,22.00
2023-08-22T08:12:03.188Z,22.20
2023-08-22T08:14:30.349Z,22.30
2023-08-22T08:16:57.651Z,22.30
2023-08-22T08:19:27.368Z,22.40
2023-08-22T08:21:55.449Z,22.50
2023-08-22T08:24:22.845Z,22.50
2023-08-22T08:26:50.051Z,22.50
2023-08-22T08:29:19.419Z,22.80
2023-08-22T08:31:48.498Z,22.90
2023-08-22T08:34:15.852Z,22.80
2023-08-22T08:36:43.120Z,22.70
2023-08-22T08:39:10.228Z,22.80
2023-08-22T08:41:40.977Z,23.00
2023-08-22T08:44:10.236Z,23.10
2023-08-22T08:46:38.091Z,23.20
2023-08-22T08:49:06.882Z,23.30
2023-08-22T08:51:35.051Z,23.30
2023-08-22T08:54:02.777Z,23.40
2023-08-22T08:56:30.422Z,23.60
2023-08-22T08:59:00.465Z,23.70
2023-08-22T09:01:27.985Z,23.70
2023-08-22T09:03:55.127Z,23.60
2023-08-22T09:06:22.374Z,23.50
2023-08-22T09:09:08.456Z,23.50
2023-08-22T09:11:40.730Z,23.50
2023-08-22T09:14:11.639Z,23.50
2023-08-22T09:16:38.937Z,23.40
2023-08-22T09:19:08.436Z,23.20
2023-08-22T09:21:35.615Z,23.10
2023-08-22T09:24:25.776Z,23.10
2023-08-22T09:26:53.092Z,23.20
2023-08-22T09:29:32.134Z,23.20
2023-08-22T09:32:02.314Z,23.40
2023-08-22T09:34:31.864Z,23.40
2023-08-22T09:36:59.275Z,23.30
2023-08-22T09:39:26.871Z,23.50
2023-08-22T09:41:57.738Z,23.60
2023-08-22T09:44:27.070Z,23.80
2023-08-22T09:46:56.738Z,23.70
2023-08-22T09:49:24.722Z,23.80
2023-08-22T09:51:54.615Z,24.00
2023-08-22T09:54:23.877Z,24.20
2023-08-22T09:56:52.007Z,24.40
2023-08-22T09:59:21.309Z,24.60
2023-08-22T10:01:50.029Z,24.60
2023-08-22T10:04:19.793Z,24.40
2023-08-22T10:06:50.767Z,24.40
2023-08-22T10:09:19.111Z,24.50
2023-08-22T10:11:58.989Z,24.50
2023-08-22T10:14:58.097Z,24.60
2023-08-22T10:17:29.132Z,24.70
2023-08-22T10:20:06.777Z,24.80
2023-08-22T10:22:34.597Z,24.90
2023-08-22T10:25:07.434Z,25.00
2023-08-22T10:27:40.242Z,25.00
2023-08-22T10:30:20.022Z,25.00
2023-08-22T10:33:20.621Z,25.10
2023-08-22T10:36:17.774Z,25.10
2023-08-22T10:39:01.619Z,25.00
2023-08-22T10:41:55.618Z,25.00
2023-08-22T10:44:28.152Z,24.90
2023-08-22T10:47:04.316Z,24.80
2023-08-22T10:49:33.964Z,24.90
2023-08-22T10:52:37.596Z,25.10
2023-08-22T10:55:10.313Z,25.20
2023-08-22T10:57:47.935Z,25.40
2023-08-22T11:00:26.565Z,25.70
2023-08-22T11:03:00.759Z,25.60
2023-08-22T11:05:28.403Z,25.60
2023-08-22T11:07:55.648Z,25.40
2023-08-22T11:10:25.916Z,25.20
2023-08-22T11:12:56.945Z,25.30
2023-08-22T11:15:24.403Z,25.20
2023-08-22T11:17:52.159Z,25.20
2023-08-22T11:20:22.195Z,25.30
2023-08-22T11:22:50.540Z,25.30
2023-08-22T11:25:27.780Z,25.50
2023-08-22T11:27:56.500Z,25.90
2023-08-22T11:30:24.114Z,26.20
2023-08-22T11:32:51.499Z,26.30
2023-08-22T11:35:18.889Z,26.50
2023-08-22T11:37:46.124Z,26.60
2023-08-22T11:40:18.423Z,26.70
2023-08-22T11:42:49.160Z,26.70
2023-08-22T11:45:23.259Z,26.80
2023-08-22T11:47:54.083Z,26.70
2023-08-22T11:50:29.806Z,26.50
2023-08-22T11:53:14.166Z,26.70
2023-08-22T11:55:47.553Z,26.90
2023-08-22T11:58:17.982Z,27.00
2023-08-22T12:00:45.704Z,27.30
2023-08-22T12:03:13.974Z,27.40
2023-08-22T12:05:49.817Z,27.60
2023-08-22T12:08:21.920Z,27.70
2023-08-22T12:10:54.453Z,27.80
2023-08-22T12:13:28.554Z,27.50
2023-08-22T12:15:55.738Z,27.30
2023-08-22T12:18:31.022Z,27.00
2023-08-22T12:20:58.202Z,26.90
2023-08-22T12:23:25.343Z,26.80
2023-08-22T12:25:52.541Z,26.60
2023-08-22T12:28:19.708Z,26.40
2023-08-22T12:30:46.972Z,26.20
2023-08-22T12:33:14.281Z,26.20
2023-08-22T12:35:42.297Z,26.20
2023-08-22T12:38:09.968Z,26.30
2023-08-22T12:40:37.149Z,26.30
2023-08-22T12:43:04.656Z,26.00
2023-08-22T12:45:32.253Z,26.00
2023-08-22T12:47:59.448Z,25.90
2023-08-22T12:50:26.660Z,26.00
2023-08-22T12:52:53.893Z,25.90
2023-08-22T12:55:23.101Z,25.80
2023-08-22T12:57:50.677Z,25.70
2023-08-22T13:00:20.292Z,25.70
2023-08-22T13:02:47.754Z,25.50
2023-08-22T13:05:17.039Z,25.70
2023-08-22T13:07:45.437Z,25.80
2023-08-22T13:10:14.322Z,25.90
2023-08-22T13:12:41.928Z,26.10
2023-08-22T13:15:09.630Z,26.30
2023-08-22T13:17:36.903Z,26.40
2023-08-22T13:20:06.177Z,26.50
2023-08-22T13:22:33.576Z,26.70
2023-08-22T13:25:01.046Z,26.80
2023-08-22T13:27:28.454Z,26.90
2023-08-22T13:29:55.553Z,27.00
2023-08-22T13:32:22.753Z,27.00
2023-08-22T13:34:49.879Z,27.00
2023-08-22T13:37:17.148Z,27.10
2023-08-22T13:39:44.226Z,27.20
2023-08-22T13:42:11.438Z,27.20
2023-08-22T13:44:39.063Z,27.30
2023-08-22T13:47:06.445Z,27.30
2023-08-22T13:49:33.567Z,27.20
2023-08-22T13:52:00.794Z,27.30
2023-08-22T13:54:27.911Z,27.30
2023-08-22T13:56:55.128Z,27.20
2023-08-22T13:59:22.383Z,27.20
2023-08-22T14:01:49.865Z,27.30
2023-08-22T14:04:20.029Z,27.60
2023-08-22T14:06:49.212Z,27.70
2023-08-22T14:09:25.635Z,27.80
2023-08-22T14:11:54.070Z,27.90
2023-08-22T14:14:22.209Z,27.70
2023-08-22T14:16:50.523Z,27.90
2023-08-22T14:19:17.735Z,27.90
2023-08-22T14:21:48.399Z,28.00
2023-08-22T14:24:19.282Z,27.70
2023-08-22T14:26:46.536Z,27.70
2023-08-22T14:29:13.719Z,27.90
2023-08-22T14:31:41.039Z,27.90
2023-08-22T14:34:09.626Z,28.00
2023-08-22T14:36:36.823Z,28.00
2023-08-22T14:39:04.569Z,28.00
2023-08-22T14:41:32.324Z,28.20
2023-08-22T14:43:59.577Z,28.20
2023-08-22T14:46:26.870Z,28.30
2023-08-22T14:48:57.082Z,28.80
2023-08-22T14:51:24.363Z,29.20
2023-08-22T14:53:51.592Z,29.60
2023-08-22T14:56:18.853Z,30.20
2023-08-22T14:58:48.557Z,30.70
2023-08-22T15:01:18.860Z,30.90
2023-08-22T15:03:46.555Z,31.20
2023-08-22T15:06:13.824Z,31.40
2023-08-22T15:08:41.977Z,31.80
2023-08-22T15:11:09.464Z,32.00
2023-08-22T15:13:37.523Z,31.70
2023-08-22T15:16:05.002Z,31.70
2023-08-22T15:18:32.645Z,31.80
2023-08-22T15:21:03.082Z,31.90
2023-08-22T15:23:30.852Z,32.30
2023-08-22T15:25:59.013Z,32.50
2023-08-22T15:28:27.555Z,32.90
2023-08-22T15:30:58.979Z,33.00
2023-08-22T15:33:29.646Z,32.70
2023-08-22T15:36:00.969Z,32.40
2023-08-22T15:38:33.736Z,32.20
2023-08-22T15:41:02.955Z,32.20
2023-08-22T15:43:33.530Z,32.20
2023-08-22T15:46:01.434Z,32.10
2023-08-22T15:48:28.653Z,32.10
2023-08-22T15:50:58.958Z,32.30
2023-08-22T15:53:27.148Z,32.50
2023-08-22T15:55:54.592Z,32.30
2023-08-22T15:58:21.870Z,32.30
2023-08-22T16:00:49.069Z,32.50
2023-08-22T16:03:16.474Z,32.40
2023-08-22T16:05:43.815Z,32.50
2023-08-22T16:08:10.947Z,32.30
2023-08-22T16:10:38.063Z,32.20
2023-08-22T16:13:05.419Z,32.40
2023-08-22T16:15:32.509Z,32.90
2023-08-22T16:17:59.685Z,32.90
2023-08-22T16:20:27.219Z,32.80
2023-08-22T16:22:54.472Z,32.90
2023-08-22T16:25:21.578Z,33.00
2023-08-22T16:27:49.097Z,32.90
2023-08-22T16:30:17.071Z,33.10
2023-08-22T16:32:44.307Z,32.90
2023-08-22T16:35:11.452Z,32.10
2023-08-22T16:37:41.457Z,31.30
2023-08-22T16:40:15.116Z,30.50
2023-08-22T16:42:42.561Z,29.70
2023-08-22T16:45:10.595Z,29.20
2023-08-22T16:47:37.807Z,28.80
2023-08-22T16:50:08.134Z,28.30
2023-08-22T16:52:35.643Z,28.00
2023-08-22T16:55:04.844Z,27.70
2023-08-22T16:57:32.042Z,27.50
2023-08-22T16:59:59.185Z,27.20
2023-08-22T17:02:26.461Z,27.00
2023-08-22T17:04:53.667Z,26.90
2023-08-22T17:07:21.142Z,26.90
2023-08-22T17:09:48.334Z,26.80
2023-08-22T17:12:16.828Z,26.70
2023-08-22T17:14:44.122Z,26.60
2023-08-22T17:17:11.652Z,26.50
2023-08-22T17:19:38.803Z,26.40
2023-08-22T17:22:06.314Z,26.40
2023-08-22T17:24:33.552Z,26.30
2023-08-22T17:27:00.757Z,26.20
2023-08-22T17:29:29.641Z,26.20
2023-08-22T17:31:57.707Z,26.10
2023-08-22T17:34:24.862Z,26.00
2023-08-22T17:36:52.211Z,25.90
2023-08-22T17:39:19.517Z,25.90
2023-08-22T17:41:46.864Z,25.80
2023-08-22T17:44:14.057Z,25.80
2023-08-22T17:46:41.185Z,25.70
2023-08-22T17:49:08.358Z,25.70
2023-08-22T17:51:35.734Z,25.60
2023-08-22T17:54:03.403Z,25.50
2023-08-22T17:56:31.952Z,25.50
2023-08-22T17:59:03.379Z,25.40
2023-08-22T18:01:30.753Z,25.30
2023-08-22T18:03:58.038Z,25.30
2023-08-22T18:06:25.278Z,25.10
2023-08-22T18:08:52.447Z,25.00
2023-08-22T18:11:19.748Z,24.90
2023-08-22T18:13:46.888Z,24.80
2023-08-22T18:16:14.227Z,24.80
2023-08-22T18:18:42.214Z,24.80
2023-08-22T18:21:12.252Z,24.70
2023-08-22T18:23:41.632Z,24.60
2023-08-22T18:26:11.003Z,24.50
2023-08-22T18:28:39.443Z,24.40
2023-08-22T18:31:25.834Z,24.30
2023-08-22T18:33:57.190Z,24.20
2023-08-22T18:36:32.859Z,24.10
2023-08-22T18:39:00.147Z,24.00
2023-08-22T18:41:27.332Z,23.90
2023-08-22T18:43:54.478Z,23.80
2023-08-22T18:46:23.745Z,23.70
2023-08-22T18:48:51.082Z,23.60
2023-08-22T18:51:18.539Z,23.60
2023-08-22T18:53:45.801Z,23.50
2023-08-22T18:56:13.108Z,23.40
2023-08-22T18:58:41.254Z,23.30
2023-08-22T19:01:12.560Z,23.20
2023-08-22T19:03:39.866Z,23.10
2023-08-22T19:06:06.980Z,23.00
2023-08-22T19:08:34.136Z,22.90
2023-08-22T19:11:05.027Z,22.80
2023-08-22T19:13:32.656Z,22.70
2023-08-22T19:16:19.656Z,22.70
2023-08-22T19:18:46.784Z,22.60
2023-08-22T19:21:13.977Z,22.50
2023-08-22T19:23:41.129Z,22.50
2023-08-22T19:26:08.419Z,22.40
2023-08-22T19:28:36.410Z,22.40
2023-08-22T19:31:03.723Z,22.30
2023-08-22T19:33:31.929Z,22.30
2023-08-22T19:35:59.407Z,22.20
2023-08-22T19:38:26.674Z,22.20
2023-08-22T19:40:56.184Z,22.10
2023-08-22T19:43:23.470Z,22.10
2023-08-22T19:45:50.644Z,22.00
2023-08-22T19:48:18.029Z,21.90
2023-08-22T19:50:47.107Z,21.90
2023-08-22T19:53:14.759Z,21.90
2023-08-22T19:55:41.898Z,21.90
2023-08-22T19:58:09.173Z,21.90
2023-08-22T20:00:38.163Z,21.90
2023-08-22T20:03:05.813Z,21.90
2023-08-22T20:05:33.132Z,21.80
2023-08-22T20:08:00.684Z,21.70
2023-08-22T20:10:28.017Z,21.70
2023-08-22T20:12:55.353Z,21.60
2023-08-22T20:15:22.565Z,21.60
2023-08-22T20:18:22.079Z,21.50
2023-08-22T20:20:50.602Z,21.40
2023-08-22T20:23:18.367Z,21.30
2023-08-22T20:25:45.658Z,21.30
2023-08-22T20:28:12.785Z,21.20
2023-08-22T20:30:43.538Z,21.20
2023-08-22T20:33:12.027Z,21.10
2023-08-22T20:35:39.237Z,21.10
2023-08-22T20:38:06.857Z,21.10
2023-08-22T20:40:34.145Z,21.00
2023-08-22T20:43:01.304Z,20.90
2023-08-22T20:45:28.449Z,20.90
2023-08-22T20:47:55.694Z,20.90
2023-08-22T20:50:23.024Z,20.90
2023-08-22T20:52:50.406Z,20.80
2023-08-22T20:55:17.668Z,20.80
2023-08-22T20:57:45.637Z,20.70
2023-08-22T21:00:15.157Z,20.70
2023-08-22T21:02:42.715Z,20.60
2023-08-22T21:05:10.075Z,20.60
2023-08-22T21:07:37.283Z,20.50
2023-08-22T21:10:04.803Z,20.50
2023-08-22T21:12:35.845Z,20.50
2023-08-22T21:15:06.938Z,20.50
2023-08-22T21:17:34.395Z,20.40
2023-08-22T21:20:05.058Z,20.40
2023-08-22T21:22:38.120Z,20.40
2023-08-22T21:25:06.183Z,20.30
2023-08-22T21:27:33.387Z,20.30
2023-08-22T21:30:01.119Z,20.20
2023-08-22T21:32:28.445Z,20.20
2023-08-22T21:34:55.720Z,20.20
2023-08-22T21:37:24.402Z,20.10
2023-08-22T21:39:51.737Z,20.10
2023-08-22T21:42:18.921Z,20.10
2023-08-22T21:44:46.255Z,20.10
2023-08-22T21:47:13.492Z,20.00
2023-08-22T21:49:40.617Z,20.00
2023-08-22T21:52:07.778Z,19.90
2023-08-22T21:54:34.906Z,19.90
2023-08-22T21:57:02.616Z,19.90
2023-08-22T21:59:29.728Z,19.80
2023-08-22T22:01:56.956Z,19.80
2023-08-22T22:04:24.194Z,19.70
2023-08-22T22:06:51.299Z,19.70
2023-08-22T22:09:18.470Z,19.60
2023-08-22T22:11:45.678Z,19.60
2023-08-22T22:14:12.946Z,19.50
2023-08-22T22:16:45.235Z,19.50
2023-08-22T22:19:15.411Z,19.40
2023-08-22T22:21:42.757Z,19.30
2023-08-22T22:24:09.985Z,19.30
2023-08-22T22:26:37.171Z,19.30
2023-08-22T22:29:04.331Z,19.30
2023-08-22T22:31:31.524Z,19.20
2023-08-22T22:33:59.067Z,19.20
2023-08-22T22:36:26.288Z,19.10
2023-08-22T22:38:53.405Z,19.10
2023-08-22T22:41:20.508Z,19.00
2023-08-22T22:43:47.838Z,19.00
2023-08-22T22:46:15.100Z,19.00
2023-08-22T22:48:43.588Z,19.00
2023-08-22T22:51:11.032Z,19.00
2023-08-22T22:53:38.245Z,18.90
2023-08-22T22:56:05.520Z,18.90
2023-08-22T22:58:32.812Z,18.90
2023-08-22T23:01:05.291Z,18.80
2023-08-22T23:03:32.685Z,18.80
2023-08-22T23:06:10.596Z,18.80
2023-08-22T23:08:37.937Z,18.80
2023-08-22T23:11:06.512Z,18.70
2023-08-22T23:13:36.174Z,18.70
2023-08-22T23:16:03.253Z,18.60
2023-08-22T23:18:30.431Z,18.50
2023-08-22T23:20:57.673Z,18.50
2023-08-22T23:23:24.783Z,18.50
2023-08-22T23:25:52.641Z,18.40
2023-08-22T23:28:19.914Z,18.40
2023-08-22T23:30:47.127Z,18.40
2023-08-22T23:33:14.416Z,18.30
2023-08-22T23:35:41.586Z,18.30
2023-08-22T23:38:09.353Z,18.30
2023-08-22T23:40:36.482Z,18.30
2023-08-22T23:43:05.614Z,18.20
2023-08-22T23:45:32.799Z,18.10
2023-08-22T23:48:00.327Z,18.10
2023-08-22T23:50:27.493Z,18.10
2023-08-22T23:52:54.840Z,18.00
2023-08-22T23:55:22.108Z,18.00
2023-08-22T23:57:50.035Z,18.00
